sensor_id;sensor_type;location;lat;lon;timestamp;P1;durP1;ratioP1;P2;durP2;ratioP2
55827;SDS011;41758;51.992;5.890;2023-05-14T00:00:50;17.67;;;16.08;;
55827;SDS011;41758;51.992;5.890;2023-05-14T00:03:16;17.10;;;15.50;;
55827;SDS011;41758;51.992;5.890;2023-05-14T00:05:41;17.23;;;15.68;;
55827;SDS011;41758;51.992;5.890;2023-05-14T00:08:07;16.65;;;15.15;;
55827;SDS011;41758;51.992;5.890;2023-05-14T00:10:33;19.05;;;17.33;;
55827;SDS011;41758;51.992;5.890;2023-05-14T00:12:59;18.90;;;17.30;;
55827;SDS011;41758;51.992;5.890;2023-05-14T00:15:24;18.17;;;16.58;;
55827;SDS011;41758;51.992;5.890;2023-05-14T00:17:50;17.73;;;16.15;;
55827;SDS011;41758;51.992;5.890;2023-05-14T00:20:16;17.90;;;16.25;;
55827;SDS011;41758;51.992;5.890;2023-05-14T00:22:41;17.48;;;15.88;;
55827;SDS011;41758;51.992;5.890;2023-05-14T00:25:07;17.73;;;16.02;;
55827;SDS011;41758;51.992;5.890;2023-05-14T00:27:34;17.40;;;15.85;;
55827;SDS011;41758;51.992;5.890;2023-05-14T00:30:02;17.80;;;16.20;;
55827;SDS011;41758;51.992;5.890;2023-05-14T00:32:29;16.55;;;15.13;;
55827;SDS011;41758;51.992;5.890;2023-05-14T00:34:55;17.15;;;15.60;;
55827;SDS011;41758;51.992;5.890;2023-05-14T00:37:21;16.80;;;15.30;;
55827;SDS011;41758;51.992;5.890;2023-05-14T00:39:46;18.17;;;16.58;;
55827;SDS011;41758;51.992;5.890;2023-05-14T00:42:12;16.92;;;15.43;;
55827;SDS011;41758;51.992;5.890;2023-05-14T00:44:38;17.70;;;16.00;;
55827;SDS011;41758;51.992;5.890;2023-05-14T00:47:03;17.90;;;16.27;;
55827;SDS011;41758;51.992;5.890;2023-05-14T00:49:29;17.40;;;15.90;;
55827;SDS011;41758;51.992;5.890;2023-05-14T00:51:55;17.95;;;16.25;;
55827;SDS011;41758;51.992;5.890;2023-05-14T00:54:24;18.00;;;16.30;;
55827;SDS011;41758;51.992;5.890;2023-05-14T00:56:52;17.30;;;15.63;;
55827;SDS011;41758;51.992;5.890;2023-05-14T00:59:18;17.73;;;16.13;;
55827;SDS011;41758;51.992;5.890;2023-05-14T01:01:44;17.70;;;16.08;;
55827;SDS011;41758;51.992;5.890;2023-05-14T01:04:10;18.15;;;16.45;;
55827;SDS011;41758;51.992;5.890;2023-05-14T01:09:17;16.77;;;15.18;;
55827;SDS011;41758;51.992;5.890;2023-05-14T01:11:59;17.15;;;15.57;;
55827;SDS011;41758;51.992;5.890;2023-05-14T01:14:42;16.55;;;15.05;;
55827;SDS011;41758;51.992;5.890;2023-05-14T01:17:21;16.85;;;15.25;;
55827;SDS011;41758;51.992;5.890;2023-05-14T01:19:49;16.70;;;15.20;;
55827;SDS011;41758;51.992;5.890;2023-05-14T01:22:17;16.02;;;14.43;;
55827;SDS011;41758;51.992;5.890;2023-05-14T01:24:43;16.73;;;15.25;;
55827;SDS011;41758;51.992;5.890;2023-05-14T01:27:24;16.25;;;14.85;;
55827;SDS011;41758;51.992;5.890;2023-05-14T01:32:50;16.90;;;15.40;;
55827;SDS011;41758;51.992;5.890;2023-05-14T01:35:19;16.48;;;14.98;;
55827;SDS011;41758;51.992;5.890;2023-05-14T01:37:48;17.10;;;15.40;;
55827;SDS011;41758;51.992;5.890;2023-05-14T01:40:14;17.40;;;15.80;;
55827;SDS011;41758;51.992;5.890;2023-05-14T01:42:40;16.33;;;14.82;;
55827;SDS011;41758;51.992;5.890;2023-05-14T01:45:08;16.55;;;15.05;;
55827;SDS011;41758;51.992;5.890;2023-05-14T01:47:34;16.75;;;15.15;;
55827;SDS011;41758;51.992;5.890;2023-05-14T01:50:00;16.25;;;14.75;;
55827;SDS011;41758;51.992;5.890;2023-05-14T01:52:25;17.20;;;15.70;;
55827;SDS011;41758;51.992;5.890;2023-05-14T01:54:51;17.15;;;15.55;;
55827;SDS011;41758;51.992;5.890;2023-05-14T01:57:17;17.33;;;15.70;;
55827;SDS011;41758;51.992;5.890;2023-05-14T01:59:42;17.02;;;15.43;;
55827;SDS011;41758;51.992;5.890;2023-05-14T02:02:09;17.17;;;15.63;;
55827;SDS011;41758;51.992;5.890;2023-05-14T02:04:34;16.85;;;15.35;;
55827;SDS011;41758;51.992;5.890;2023-05-14T02:07:00;16.40;;;14.90;;
55827;SDS011;41758;51.992;5.890;2023-05-14T02:09:26;16.20;;;14.70;;
55827;SDS011;41758;51.992;5.890;2023-05-14T02:11:51;17.40;;;15.77;;
55827;SDS011;41758;51.992;5.890;2023-05-14T02:14:17;16.77;;;15.27;;
55827;SDS011;41758;51.992;5.890;2023-05-14T02:16:43;17.33;;;15.70;;
55827;SDS011;41758;51.992;5.890;2023-05-14T02:19:08;18.15;;;16.45;;
55827;SDS011;41758;51.992;5.890;2023-05-14T02:21:34;18.45;;;16.83;;
55827;SDS011;41758;51.992;5.890;2023-05-14T02:24:00;17.80;;;16.20;;
55827;SDS011;41758;51.992;5.890;2023-05-14T02:26:25;17.30;;;15.70;;
55827;SDS011;41758;51.992;5.890;2023-05-14T02:28:51;17.98;;;16.15;;
55827;SDS011;41758;51.992;5.890;2023-05-14T02:31:17;19.60;;;17.70;;
55827;SDS011;41758;51.992;5.890;2023-05-14T02:33:43;20.52;;;18.60;;
55827;SDS011;41758;51.992;5.890;2023-05-14T02:36:09;20.35;;;18.45;;
55827;SDS011;41758;51.992;5.890;2023-05-14T02:38:35;20.27;;;18.27;;
55827;SDS011;41758;51.992;5.890;2023-05-14T02:41:01;19.58;;;17.77;;
55827;SDS011;41758;51.992;5.890;2023-05-14T02:43:26;18.58;;;16.83;;
55827;SDS011;41758;51.992;5.890;2023-05-14T02:45:52;18.75;;;17.05;;
55827;SDS011;41758;51.992;5.890;2023-05-14T02:48:18;19.65;;;17.77;;
55827;SDS011;41758;51.992;5.890;2023-05-14T02:50:44;20.85;;;18.85;;
55827;SDS011;41758;51.992;5.890;2023-05-14T02:53:10;19.05;;;17.25;;
55827;SDS011;41758;51.992;5.890;2023-05-14T02:55:36;20.55;;;18.55;;
55827;SDS011;41758;51.992;5.890;2023-05-14T02:58:02;19.70;;;17.95;;
55827;SDS011;41758;51.992;5.890;2023-05-14T03:00:28;19.05;;;17.35;;
55827;SDS011;41758;51.992;5.890;2023-05-14T03:02:53;20.17;;;18.25;;
55827;SDS011;41758;51.992;5.890;2023-05-14T03:05:19;20.17;;;18.35;;
55827;SDS011;41758;51.992;5.890;2023-05-14T03:07:45;21.00;;;19.00;;
55827;SDS011;41758;51.992;5.890;2023-05-14T03:10:10;20.17;;;18.27;;
55827;SDS011;41758;51.992;5.890;2023-05-14T03:12:36;20.35;;;18.42;;
55827;SDS011;41758;51.992;5.890;2023-05-14T03:15:02;20.00;;;18.10;;
55827;SDS011;41758;51.992;5.890;2023-05-14T03:17:28;17.23;;;15.43;;
55827;SDS011;41758;51.992;5.890;2023-05-14T03:19:54;22.20;;;20.00;;
55827;SDS011;41758;51.992;5.890;2023-05-14T03:22:20;27.02;;;24.52;;
55827;SDS011;41758;51.992;5.890;2023-05-14T03:24:46;21.55;;;19.55;;
55827;SDS011;41758;51.992;5.890;2023-05-14T03:27:11;22.45;;;20.38;;
55827;SDS011;41758;51.992;5.890;2023-05-14T03:29:37;21.95;;;19.85;;
55827;SDS011;41758;51.992;5.890;2023-05-14T03:32:03;20.92;;;18.92;;
55827;SDS011;41758;51.992;5.890;2023-05-14T03:34:29;21.20;;;19.20;;
55827;SDS011;41758;51.992;5.890;2023-05-14T03:36:55;20.17;;;18.30;;
55827;SDS011;41758;51.992;5.890;2023-05-14T03:39:21;20.35;;;18.45;;
55827;SDS011;41758;51.992;5.890;2023-05-14T03:41:47;20.95;;;18.80;;
55827;SDS011;41758;51.992;5.890;2023-05-14T03:44:13;20.77;;;18.80;;
55827;SDS011;41758;51.992;5.890;2023-05-14T03:46:38;20.50;;;18.50;;
55827;SDS011;41758;51.992;5.890;2023-05-14T03:49:05;21.23;;;19.13;;
55827;SDS011;41758;51.992;5.890;2023-05-14T03:51:31;20.63;;;18.73;;
55827;SDS011;41758;51.992;5.890;2023-05-14T03:53:57;21.67;;;19.50;;
55827;SDS011;41758;51.992;5.890;2023-05-14T03:56:23;20.45;;;18.45;;
55827;SDS011;41758;51.992;5.890;2023-05-14T03:58:51;20.38;;;18.33;;
55827;SDS011;41758;51.992;5.890;2023-05-14T04:01:17;20.30;;;18.30;;
55827;SDS011;41758;51.992;5.890;2023-05-14T04:03:42;21.23;;;19.23;;
55827;SDS011;41758;51.992;5.890;2023-05-14T04:06:09;22.63;;;20.30;;
55827;SDS011;41758;51.992;5.890;2023-05-14T04:08:35;26.13;;;23.63;;
55827;SDS011;41758;51.992;5.890;2023-05-14T04:11:00;27.23;;;24.73;;
55827;SDS011;41758;51.992;5.890;2023-05-14T04:13:26;25.58;;;23.08;;
55827;SDS011;41758;51.992;5.890;2023-05-14T04:15:52;23.15;;;20.95;;
55827;SDS011;41758;51.992;5.890;2023-05-14T04:18:18;24.00;;;21.70;;
55827;SDS011;41758;51.992;5.890;2023-05-14T04:20:44;25.92;;;23.23;;
55827;SDS011;41758;51.992;5.890;2023-05-14T04:23:09;24.27;;;21.88;;
55827;SDS011;41758;51.992;5.890;2023-05-14T04:25:36;22.98;;;20.75;;
55827;SDS011;41758;51.992;5.890;2023-05-14T04:28:02;25.00;;;22.50;;
55827;SDS011;41758;51.992;5.890;2023-05-14T04:30:27;24.92;;;22.48;;
55827;SDS011;41758;51.992;5.890;2023-05-14T04:32:53;26.13;;;23.52;;
55827;SDS011;41758;51.992;5.890;2023-05-14T04:35:19;26.38;;;23.60;;
55827;SDS011;41758;51.992;5.890;2023-05-14T04:37:45;25.50;;;23.10;;
55827;SDS011;41758;51.992;5.890;2023-05-14T04:40:11;24.38;;;22.02;;
55827;SDS011;41758;51.992;5.890;2023-05-14T04:42:37;25.45;;;22.85;;
55827;SDS011;41758;51.992;5.890;2023-05-14T04:45:04;26.17;;;23.67;;
55827;SDS011;41758;51.992;5.890;2023-05-14T04:47:31;23.55;;;21.25;;
55827;SDS011;41758;51.992;5.890;2023-05-14T04:49:56;22.85;;;20.65;;
55827;SDS011;41758;51.992;5.890;2023-05-14T04:52:22;23.65;;;21.33;;
55827;SDS011;41758;51.992;5.890;2023-05-14T04:54:48;22.15;;;19.88;;
55827;SDS011;41758;51.992;5.890;2023-05-14T04:57:14;22.05;;;19.85;;
55827;SDS011;41758;51.992;5.890;2023-05-14T04:59:40;22.33;;;20.10;;
55827;SDS011;41758;51.992;5.890;2023-05-14T05:02:06;21.42;;;19.33;;
55827;SDS011;41758;51.992;5.890;2023-05-14T05:04:32;20.45;;;18.48;;
55827;SDS011;41758;51.992;5.890;2023-05-14T05:06:58;21.05;;;18.95;;
55827;SDS011;41758;51.992;5.890;2023-05-14T05:09:23;20.13;;;18.15;;
55827;SDS011;41758;51.992;5.890;2023-05-14T05:11:49;22.02;;;19.77;;
55827;SDS011;41758;51.992;5.890;2023-05-14T05:14:15;20.40;;;18.40;;
55827;SDS011;41758;51.992;5.890;2023-05-14T05:16:41;20.33;;;18.33;;
55827;SDS011;41758;51.992;5.890;2023-05-14T05:19:06;21.23;;;19.13;;
55827;SDS011;41758;51.992;5.890;2023-05-14T05:21:32;21.50;;;19.40;;
55827;SDS011;41758;51.992;5.890;2023-05-14T05:23:58;22.30;;;20.05;;
55827;SDS011;41758;51.992;5.890;2023-05-14T05:26:25;22.27;;;20.02;;
55827;SDS011;41758;51.992;5.890;2023-05-14T05:28:51;22.70;;;20.50;;
55827;SDS011;41758;51.992;5.890;2023-05-14T05:31:16;21.20;;;19.15;;
55827;SDS011;41758;51.992;5.890;2023-05-14T05:33:42;21.27;;;19.23;;
55827;SDS011;41758;51.992;5.890;2023-05-14T05:36:09;20.10;;;18.20;;
55827;SDS011;41758;51.992;5.890;2023-05-14T05:38:34;20.42;;;18.52;;
55827;SDS011;41758;51.992;5.890;2023-05-14T05:41:00;20.85;;;18.75;;
55827;SDS011;41758;51.992;5.890;2023-05-14T05:43:25;22.65;;;20.35;;
55827;SDS011;41758;51.992;5.890;2023-05-14T05:45:52;21.40;;;19.38;;
55827;SDS011;41758;51.992;5.890;2023-05-14T05:48:18;21.88;;;19.77;;
55827;SDS011;41758;51.992;5.890;2023-05-14T05:50:47;22.77;;;20.50;;
55827;SDS011;41758;51.992;5.890;2023-05-14T05:53:14;22.58;;;20.40;;
55827;SDS011;41758;51.992;5.890;2023-05-14T05:55:40;22.27;;;20.08;;
55827;SDS011;41758;51.992;5.890;2023-05-14T05:58:06;21.30;;;19.23;;
55827;SDS011;41758;51.992;5.890;2023-05-14T06:00:32;22.60;;;20.40;;
55827;SDS011;41758;51.992;5.890;2023-05-14T06:02:58;22.48;;;20.15;;
55827;SDS011;41758;51.992;5.890;2023-05-14T06:05:24;22.50;;;20.20;;
55827;SDS011;41758;51.992;5.890;2023-05-14T06:07:50;21.55;;;19.35;;
55827;SDS011;41758;51.992;5.890;2023-05-14T06:10:17;21.23;;;19.13;;
55827;SDS011;41758;51.992;5.890;2023-05-14T06:12:43;21.27;;;19.27;;
55827;SDS011;41758;51.992;5.890;2023-05-14T06:15:09;20.30;;;18.27;;
55827;SDS011;41758;51.992;5.890;2023-05-14T06:17:36;20.73;;;18.63;;
55827;SDS011;41758;51.992;5.890;2023-05-14T06:20:03;21.15;;;18.88;;
55827;SDS011;41758;51.992;5.890;2023-05-14T06:22:29;20.08;;;17.98;;
55827;SDS011;41758;51.992;5.890;2023-05-14T06:24:55;19.75;;;17.75;;
55827;SDS011;41758;51.992;5.890;2023-05-14T06:27:21;20.52;;;18.52;;
55827;SDS011;41758;51.992;5.890;2023-05-14T06:29:47;19.00;;;17.05;;
55827;SDS011;41758;51.992;5.890;2023-05-14T06:32:12;18.75;;;16.95;;
55827;SDS011;41758;51.992;5.890;2023-05-14T06:34:40;20.80;;;18.80;;
55827;SDS011;41758;51.992;5.890;2023-05-14T06:37:06;19.58;;;17.67;;
55827;SDS011;41758;51.992;5.890;2023-05-14T06:39:34;23.08;;;20.83;;
55827;SDS011;41758;51.992;5.890;2023-05-14T06:42:00;21.52;;;19.45;;
55827;SDS011;41758;51.992;5.890;2023-05-14T06:44:26;22.38;;;20.08;;
55827;SDS011;41758;51.992;5.890;2023-05-14T06:46:51;25.75;;;23.05;;
55827;SDS011;41758;51.992;5.890;2023-05-14T06:49:17;25.80;;;23.25;;
55827;SDS011;41758;51.992;5.890;2023-05-14T06:51:43;25.70;;;23.23;;
55827;SDS011;41758;51.992;5.890;2023-05-14T06:54:09;25.95;;;23.33;;
55827;SDS011;41758;51.992;5.890;2023-05-14T06:56:35;22.35;;;20.25;;
55827;SDS011;41758;51.992;5.890;2023-05-14T06:59:01;23.73;;;21.35;;
55827;SDS011;41758;51.992;5.890;2023-05-14T07:01:26;23.83;;;21.38;;
55827;SDS011;41758;51.992;5.890;2023-05-14T07:03:52;21.15;;;19.15;;
55827;SDS011;41758;51.992;5.890;2023-05-14T07:06:18;23.08;;;20.77;;
55827;SDS011;41758;51.992;5.890;2023-05-14T07:08:44;21.83;;;19.83;;
55827;SDS011;41758;51.992;5.890;2023-05-14T07:11:12;21.65;;;19.55;;
55827;SDS011;41758;51.992;5.890;2023-05-14T07:13:38;24.60;;;22.15;;
55827;SDS011;41758;51.992;5.890;2023-05-14T07:16:05;22.73;;;20.35;;
55827;SDS011;41758;51.992;5.890;2023-05-14T07:18:33;24.30;;;21.88;;
55827;SDS011;41758;51.992;5.890;2023-05-14T07:20:59;25.05;;;22.58;;
55827;SDS011;41758;51.992;5.890;2023-05-14T07:23:25;23.73;;;21.33;;
55827;SDS011;41758;51.992;5.890;2023-05-14T07:25:50;20.88;;;18.90;;
55827;SDS011;41758;51.992;5.890;2023-05-14T07:28:16;20.05;;;18.15;;
55827;SDS011;41758;51.992;5.890;2023-05-14T07:30:41;22.10;;;19.80;;
55827;SDS011;41758;51.992;5.890;2023-05-14T07:33:07;19.67;;;17.83;;
55827;SDS011;41758;51.992;5.890;2023-05-14T07:35:33;20.80;;;18.80;;
55827;SDS011;41758;51.992;5.890;2023-05-14T07:37:58;19.95;;;18.08;;
55827;SDS011;41758;51.992;5.890;2023-05-14T07:40:24;21.25;;;19.05;;
55827;SDS011;41758;51.992;5.890;2023-05-14T07:42:50;18.65;;;16.85;;
55827;SDS011;41758;51.992;5.890;2023-05-14T07:45:16;18.65;;;16.85;;
55827;SDS011;41758;51.992;5.890;2023-05-14T07:47:41;18.30;;;16.50;;
55827;SDS011;41758;51.992;5.890;2023-05-14T07:50:07;20.48;;;18.48;;
55827;SDS011;41758;51.992;5.890;2023-05-14T07:52:33;21.35;;;19.30;;
55827;SDS011;41758;51.992;5.890;2023-05-14T07:55:01;23.17;;;20.67;;
55827;SDS011;41758;51.992;5.890;2023-05-14T07:57:27;21.95;;;19.85;;
55827;SDS011;41758;51.992;5.890;2023-05-14T07:59:53;22.02;;;19.85;;
55827;SDS011;41758;51.992;5.890;2023-05-14T08:02:18;20.20;;;18.30;;
55827;SDS011;41758;51.992;5.890;2023-05-14T08:04:44;19.70;;;17.77;;
55827;SDS011;41758;51.992;5.890;2023-05-14T08:07:10;21.00;;;18.90;;
55827;SDS011;41758;51.992;5.890;2023-05-14T08:09:35;21.73;;;19.58;;
55827;SDS011;41758;51.992;5.890;2023-05-14T08:12:01;19.85;;;18.05;;
55827;SDS011;41758;51.992;5.890;2023-05-14T08:14:27;17.83;;;16.23;;
55827;SDS011;41758;51.992;5.890;2023-05-14T08:16:53;16.10;;;14.50;;
55827;SDS011;41758;51.992;5.890;2023-05-14T08:19:18;15.00;;;13.50;;
55827;SDS011;41758;51.992;5.890;2023-05-14T08:21:44;15.50;;;14.02;;
55827;SDS011;41758;51.992;5.890;2023-05-14T08:24:10;14.15;;;12.82;;
55827;SDS011;41758;51.992;5.890;2023-05-14T08:26:36;15.52;;;14.02;;
55827;SDS011;41758;51.992;5.890;2023-05-14T08:29:03;14.48;;;13.18;;
55827;SDS011;41758;51.992;5.890;2023-05-14T08:31:29;14.20;;;12.88;;
55827;SDS011;41758;51.992;5.890;2023-05-14T08:33:54;13.93;;;12.63;;
55827;SDS011;41758;51.992;5.890;2023-05-14T08:36:20;12.57;;;11.38;;
55827;SDS011;41758;51.992;5.890;2023-05-14T08:38:46;12.50;;;11.40;;
55827;SDS011;41758;51.992;5.890;2023-05-14T08:41:12;13.23;;;11.93;;
55827;SDS011;41758;51.992;5.890;2023-05-14T08:43:44;12.68;;;11.50;;
55827;SDS011;41758;51.992;5.890;2023-05-14T08:46:18;11.95;;;10.75;;
55827;SDS011;41758;51.992;5.890;2023-05-14T08:48:49;11.18;;;10.13;;
55827;SDS011;41758;51.992;5.890;2023-05-14T08:51:21;10.35;;;9.38;;
55827;SDS011;41758;51.992;5.890;2023-05-14T08:53:47;10.90;;;9.90;;
55827;SDS011;41758;51.992;5.890;2023-05-14T08:56:13;10.60;;;9.50;;
55827;SDS011;41758;51.992;5.890;2023-05-14T08:58:42;9.82;;;8.88;;
55827;SDS011;41758;51.992;5.890;2023-05-14T09:01:08;10.07;;;9.07;;
55827;SDS011;41758;51.992;5.890;2023-05-14T09:03:33;10.18;;;9.20;;
55827;SDS011;41758;51.992;5.890;2023-05-14T09:06:01;10.38;;;9.38;;
55827;SDS011;41758;51.992;5.890;2023-05-14T09:08:27;11.57;;;10.40;;
55827;SDS011;41758;51.992;5.890;2023-05-14T09:10:53;12.52;;;11.32;;
55827;SDS011;41758;51.992;5.890;2023-05-14T09:13:18;11.82;;;10.73;;
55827;SDS011;41758;51.992;5.890;2023-05-14T09:15:44;10.82;;;9.82;;
55827;SDS011;41758;51.992;5.890;2023-05-14T09:18:12;10.10;;;9.15;;
55827;SDS011;41758;51.992;5.890;2023-05-14T09:20:37;10.52;;;9.52;;
55827;SDS011;41758;51.992;5.890;2023-05-14T09:23:03;12.10;;;11.00;;
55827;SDS011;41758;51.992;5.890;2023-05-14T09:25:30;11.20;;;10.10;;
55827;SDS011;41758;51.992;5.890;2023-05-14T09:27:56;10.15;;;9.20;;
55827;SDS011;41758;51.992;5.890;2023-05-14T09:30:23;11.27;;;10.18;;
55827;SDS011;41758;51.992;5.890;2023-05-14T09:32:52;11.02;;;9.88;;
55827;SDS011;41758;51.992;5.890;2023-05-14T09:35:19;10.35;;;9.35;;
55827;SDS011;41758;51.992;5.890;2023-05-14T09:37:47;10.95;;;9.93;;
55827;SDS011;41758;51.992;5.890;2023-05-14T09:40:14;11.00;;;10.00;;
55827;SDS011;41758;51.992;5.890;2023-05-14T09:42:41;10.10;;;9.20;;
55827;SDS011;41758;51.992;5.890;2023-05-14T09:45:07;9.55;;;8.65;;
55827;SDS011;41758;51.992;5.890;2023-05-14T09:47:35;10.13;;;9.13;;
55827;SDS011;41758;51.992;5.890;2023-05-14T09:50:02;11.02;;;10.02;;
55827;SDS011;41758;51.992;5.890;2023-05-14T09:52:28;10.70;;;9.70;;
55827;SDS011;41758;51.992;5.890;2023-05-14T09:54:54;11.77;;;10.75;;
55827;SDS011;41758;51.992;5.890;2023-05-14T09:57:19;11.10;;;10.00;;
55827;SDS011;41758;51.992;5.890;2023-05-14T09:59:45;10.15;;;9.25;;
55827;SDS011;41758;51.992;5.890;2023-05-14T10:02:21;9.82;;;8.90;;
55827;SDS011;41758;51.992;5.890;2023-05-14T10:04:50;9.38;;;8.57;;
55827;SDS011;41758;51.992;5.890;2023-05-14T10:07:20;12.07;;;10.20;;
55827;SDS011;41758;51.992;5.890;2023-05-14T10:09:47;10.70;;;9.63;;
55827;SDS011;41758;51.992;5.890;2023-05-14T10:12:15;10.00;;;8.98;;
55827;SDS011;41758;51.992;5.890;2023-05-14T10:14:46;9.65;;;8.75;;
55827;SDS011;41758;51.992;5.890;2023-05-14T10:17:15;8.35;;;7.50;;
55827;SDS011;41758;51.992;5.890;2023-05-14T10:19:47;8.75;;;7.05;;
55827;SDS011;41758;51.992;5.890;2023-05-14T10:22:21;15.95;;;9.55;;
55827;SDS011;41758;51.992;5.890;2023-05-14T10:24:48;11.68;;;7.15;;
55827;SDS011;41758;51.992;5.890;2023-05-14T10:27:19;7.97;;;6.38;;
55827;SDS011;41758;51.992;5.890;2023-05-14T10:29:50;7.70;;;5.63;;
55827;SDS011;41758;51.992;5.890;2023-05-14T10:32:21;15.68;;;7.22;;
55827;SDS011;41758;51.992;5.890;2023-05-14T10:34:53;10.07;;;6.85;;
55827;SDS011;41758;51.992;5.890;2023-05-14T10:37:20;37.47;;;9.82;;
55827;SDS011;41758;51.992;5.890;2023-05-14T10:39:51;14.18;;;8.90;;
55827;SDS011;41758;51.992;5.890;2023-05-14T10:42:25;13.07;;;8.15;;
55827;SDS011;41758;51.992;5.890;2023-05-14T10:44:55;18.77;;;8.35;;
55827;SDS011;41758;51.992;5.890;2023-05-14T10:47:23;14.60;;;7.15;;
55827;SDS011;41758;51.992;5.890;2023-05-14T10:50:01;22.90;;;8.50;;
55827;SDS011;41758;51.992;5.890;2023-05-14T10:52:29;18.95;;;7.40;;
55827;SDS011;41758;51.992;5.890;2023-05-14T10:54:56;13.23;;;6.43;;
55827;SDS011;41758;51.992;5.890;2023-05-14T10:57:28;13.35;;;6.55;;
55827;SDS011;41758;51.992;5.890;2023-05-14T10:59:55;10.18;;;5.97;;
55827;SDS011;41758;51.992;5.890;2023-05-14T11:02:27;9.95;;;5.90;;
55827;SDS011;41758;51.992;5.890;2023-05-14T11:07:31;7.05;;;5.75;;
55827;SDS011;41758;51.992;5.890;2023-05-14T11:10:04;7.65;;;5.43;;
55827;SDS011;41758;51.992;5.890;2023-05-14T11:12:31;6.60;;;5.67;;
55827;SDS011;41758;51.992;5.890;2023-05-14T11:14:58;5.80;;;4.90;;
55827;SDS011;41758;51.992;5.890;2023-05-14T11:17:26;5.82;;;5.20;;
55827;SDS011;41758;51.992;5.890;2023-05-14T11:19:54;6.65;;;5.20;;
55827;SDS011;41758;51.992;5.890;2023-05-14T11:22:20;5.53;;;4.93;;
55827;SDS011;41758;51.992;5.890;2023-05-14T11:24:47;5.18;;;4.68;;
55827;SDS011;41758;51.992;5.890;2023-05-14T11:27:13;5.50;;;4.72;;
55827;SDS011;41758;51.992;5.890;2023-05-14T11:29:49;7.35;;;4.95;;
55827;SDS011;41758;51.992;5.890;2023-05-14T11:32:15;5.60;;;4.78;;
55827;SDS011;41758;51.992;5.890;2023-05-14T11:34:42;5.13;;;4.40;;
55827;SDS011;41758;51.992;5.890;2023-05-14T11:37:12;5.95;;;5.13;;
55827;SDS011;41758;51.992;5.890;2023-05-14T11:39:44;6.05;;;4.55;;
55827;SDS011;41758;51.992;5.890;2023-05-14T11:42:12;8.30;;;7.50;;
55827;SDS011;41758;51.992;5.890;2023-05-14T11:44:39;8.27;;;7.47;;
55827;SDS011;41758;51.992;5.890;2023-05-14T11:47:05;7.57;;;6.78;;
55827;SDS011;41758;51.992;5.890;2023-05-14T11:49:31;7.35;;;6.65;;
55827;SDS011;41758;51.992;5.890;2023-05-14T11:52:00;7.18;;;6.47;;
55827;SDS011;41758;51.992;5.890;2023-05-14T11:54:28;9.73;;;8.75;;
55827;SDS011;41758;51.992;5.890;2023-05-14T11:56:55;9.52;;;8.63;;
55827;SDS011;41758;51.992;5.890;2023-05-14T11:59:25;10.07;;;9.18;;
55827;SDS011;41758;51.992;5.890;2023-05-14T12:01:52;10.90;;;9.90;;
55827;SDS011;41758;51.992;5.890;2023-05-14T12:04:19;11.02;;;9.95;;
55827;SDS011;41758;51.992;5.890;2023-05-14T12:06:50;9.82;;;8.82;;
55827;SDS011;41758;51.992;5.890;2023-05-14T12:09:16;8.15;;;7.45;;
55827;SDS011;41758;51.992;5.890;2023-05-14T12:11:46;7.78;;;6.45;;
55827;SDS011;41758;51.992;5.890;2023-05-14T12:14:17;6.70;;;6.03;;
55827;SDS011;41758;51.992;5.890;2023-05-14T12:16:44;6.57;;;5.65;;
55827;SDS011;41758;51.992;5.890;2023-05-14T12:19:13;6.05;;;5.38;;
55827;SDS011;41758;51.992;5.890;2023-05-14T12:21:42;5.20;;;4.70;;
55827;SDS011;41758;51.992;5.890;2023-05-14T12:24:11;7.13;;;5.65;;
55827;SDS011;41758;51.992;5.890;2023-05-14T12:26:43;7.20;;;6.50;;
55827;SDS011;41758;51.992;5.890;2023-05-14T12:29:13;6.38;;;5.70;;
55827;SDS011;41758;51.992;5.890;2023-05-14T12:31:44;6.78;;;6.07;;
55827;SDS011;41758;51.992;5.890;2023-05-14T12:34:11;7.57;;;6.10;;
55827;SDS011;41758;51.992;5.890;2023-05-14T12:36:37;6.28;;;5.68;;
55827;SDS011;41758;51.992;5.890;2023-05-14T12:39:03;7.80;;;7.00;;
55827;SDS011;41758;51.992;5.890;2023-05-14T12:41:30;8.43;;;7.63;;
55827;SDS011;41758;51.992;5.890;2023-05-14T12:43:56;7.28;;;6.50;;
55827;SDS011;41758;51.992;5.890;2023-05-14T12:46:22;8.98;;;6.40;;
55827;SDS011;41758;51.992;5.890;2023-05-14T12:48:49;7.70;;;6.32;;
55827;SDS011;41758;51.992;5.890;2023-05-14T12:51:15;8.32;;;6.70;;
55827;SDS011;41758;51.992;5.890;2023-05-14T12:53:41;8.75;;;7.53;;
55827;SDS011;41758;51.992;5.890;2023-05-14T12:56:06;8.00;;;7.00;;
55827;SDS011;41758;51.992;5.890;2023-05-14T12:58:32;8.93;;;8.00;;
55827;SDS011;41758;51.992;5.890;2023-05-14T13:00:58;9.27;;;8.25;;
55827;SDS011;41758;51.992;5.890;2023-05-14T13:03:24;9.10;;;8.20;;
55827;SDS011;41758;51.992;5.890;2023-05-14T13:05:50;9.90;;;8.38;;
55827;SDS011;41758;51.992;5.890;2023-05-14T13:08:17;8.88;;;7.80;;
55827;SDS011;41758;51.992;5.890;2023-05-14T13:10:45;12.27;;;9.50;;
55827;SDS011;41758;51.992;5.890;2023-05-14T13:13:13;9.70;;;8.70;;
55827;SDS011;41758;51.992;5.890;2023-05-14T13:15:39;9.25;;;7.68;;
55827;SDS011;41758;51.992;5.890;2023-05-14T13:18:05;8.20;;;7.40;;
55827;SDS011;41758;51.992;5.890;2023-05-14T13:20:34;7.47;;;6.78;;
55827;SDS011;41758;51.992;5.890;2023-05-14T13:23:00;7.20;;;6.50;;
55827;SDS011;41758;51.992;5.890;2023-05-14T13:25:26;7.47;;;6.65;;
55827;SDS011;41758;51.992;5.890;2023-05-14T13:27:52;8.40;;;7.60;;
55827;SDS011;41758;51.992;5.890;2023-05-14T13:30:17;8.18;;;7.30;;
55827;SDS011;41758;51.992;5.890;2023-05-14T13:32:43;8.07;;;7.03;;
55827;SDS011;41758;51.992;5.890;2023-05-14T13:35:09;8.30;;;7.50;;
55827;SDS011;41758;51.992;5.890;2023-05-14T13:37:35;7.00;;;6.30;;
55827;SDS011;41758;51.992;5.890;2023-05-14T13:40:02;7.93;;;7.13;;
55827;SDS011;41758;51.992;5.890;2023-05-14T13:42:34;7.80;;;7.00;;
55827;SDS011;41758;51.992;5.890;2023-05-14T13:45:00;9.32;;;8.15;;
55827;SDS011;41758;51.992;5.890;2023-05-14T13:47:27;8.52;;;7.57;;
55827;SDS011;41758;51.992;5.890;2023-05-14T13:49:54;7.75;;;6.95;;
55827;SDS011;41758;51.992;5.890;2023-05-14T13:52:20;7.57;;;6.72;;
55827;SDS011;41758;51.992;5.890;2023-05-14T13:54:46;7.38;;;6.55;;
55827;SDS011;41758;51.992;5.890;2023-05-14T13:57:12;6.97;;;5.93;;
55827;SDS011;41758;51.992;5.890;2023-05-14T13:59:39;9.13;;;8.25;;
55827;SDS011;41758;51.992;5.890;2023-05-14T14:02:05;10.93;;;9.35;;
55827;SDS011;41758;51.992;5.890;2023-05-14T14:04:31;9.50;;;8.60;;
55827;SDS011;41758;51.992;5.890;2023-05-14T14:06:57;8.80;;;7.75;;
55827;SDS011;41758;51.992;5.890;2023-05-14T14:09:23;8.80;;;7.60;;
55827;SDS011;41758;51.992;5.890;2023-05-14T14:11:49;8.60;;;7.35;;
55827;SDS011;41758;51.992;5.890;2023-05-14T14:14:15;8.55;;;7.60;;
55827;SDS011;41758;51.992;5.890;2023-05-14T14:16:41;9.52;;;8.57;;
55827;SDS011;41758;51.992;5.890;2023-05-14T14:19:07;8.50;;;7.63;;
55827;SDS011;41758;51.992;5.890;2023-05-14T14:21:33;10.40;;;8.65;;
55827;SDS011;41758;51.992;5.890;2023-05-14T14:24:00;9.50;;;8.50;;
55827;SDS011;41758;51.992;5.890;2023-05-14T14:26:26;10.90;;;9.80;;
55827;SDS011;41758;51.992;5.890;2023-05-14T14:28:53;10.00;;;9.05;;
55827;SDS011;41758;51.992;5.890;2023-05-14T14:31:19;8.60;;;7.72;;
55827;SDS011;41758;51.992;5.890;2023-05-14T14:33:45;8.55;;;7.75;;